Time;durP1;ratioP1;P1;durP2;ratioP2;P2;SDS_P1;SDS_P2;PMS_P1;PMS_P2;Temp;Humidity;BMP_temperature;BMP_pressure;BME280_temperature;BME280_humidity;BME280_pressure;Samples;Min_cycle;Max_cycle;Signal;HPM_P1;HPM_P2
2022/12/18 00:01:18;;;;;;;28.42;12.52;;;;;;;-5.43;97.19;102771.88;5074109;28;20427;-81
2022/12/18 00:03:44;;;;;;;30.17;12.75;;;;;;;-5.50;96.18;102769.56;5074666;28;20028;-80
2022/12/18 00:06:09;;;;;;;27.05;12.02;;;;;;;-5.55;96.48;102770.88;5073296;28;20419;-81
2022/12/18 00:08:35;;;;;;;26.88;11.80;;;;;;;-5.59;96.40;102768.81;5074783;28;20016;-80
2022/12/18 00:11:04;;;;;;;26.98;11.15;;;;;;;-5.58;96.85;102773.13;5074161;28;20028;-80
2022/12/18 00:13:30;;;;;;;24.95;10.80;;;;;;;-5.60;96.38;102782.22;5073131;28;20576;-80
2022/12/18 00:16:01;;;;;;;24.08;9.85;;;;;;;-5.58;96.72;102773.13;5079779;28;20127;-80
2022/12/18 00:18:26;;;;;;;26.75;10.48;;;;;;;-5.56;96.86;102766.56;5094015;28;20381;-81
2022/12/18 00:20:51;;;;;;;24.50;9.60;;;;;;;-5.55;96.94;102752.25;5093661;28;20016;-80
2022/12/18 00:23:17;;;;;;;24.40;9.90;;;;;;;-5.55;96.94;102752.25;5093830;28;20032;-81
2022/12/18 00:25:42;;;;;;;27.15;10.88;;;;;;;-5.57;97.04;102743.69;5094285;28;20118;-80
2022/12/18 00:28:07;;;;;;;27.77;11.13;;;;;;;-5.62;97.02;102735.69;5091357;28;20024;-80
2022/12/18 00:30:32;;;;;;;25.98;11.65;;;;;;;-5.66;96.89;102731.16;5073730;28;20028;-80
2022/12/18 00:32:58;;;;;;;26.25;10.23;;;;;;;-5.69;96.68;102725.84;5073505;28;20035;-80
2022/12/18 00:35:23;;;;;;;24.23;9.70;;;;;;;-5.74;96.50;102726.34;5072787;28;20020;-80
2022/12/18 00:37:48;;;;;;;25.30;11.52;;;;;;;-5.78;96.38;102725.97;5073406;28;20469;-80
2022/12/18 00:40:14;;;;;;;25.27;10.93;;;;;;;-5.80;96.68;102733.44;5073373;28;20028;-80
2022/12/18 00:42:55;;;;;;;24.25;10.13;;;;;;;-5.83;96.64;102728.13;5072362;28;20558;-80
2022/12/18 00:45:25;;;;;;;23.38;9.50;;;;;;;-5.84;96.63;102728.88;5074040;28;20112;-80
2022/12/18 00:47:51;;;;;;;27.35;11.77;;;;;;;-5.83;96.88;102728.13;5093144;28;20028;-80
2022/12/18 00:50:17;;;;;;;26.38;11.13;;;;;;;-5.84;96.38;102726.34;5092998;28;20028;-80
2022/12/18 00:52:42;;;;;;;24.83;10.65;;;;;;;-5.86;96.84;102738.00;5093781;28;20024;-80
2022/12/18 00:55:09;;;;;;;26.83;11.65;;;;;;;-5.85;96.86;102722.03;5092298;28;20036;-80
2022/12/18 00:57:34;;;;;;;26.25;11.50;;;;;;;-5.84;96.66;102716.22;5093397;28;20433;-80
2022/12/18 01:00:00;;;;;;;27.55;11.50;;;;;;;-5.83;96.16;102717.13;5092677;28;20102;-80
2022/12/18 01:02:25;;;;;;;26.05;11.05;;;;;;;-5.86;96.37;102732.94;5092575;28;20377;-80
2022/12/18 01:04:51;;;;;;;25.75;11.07;;;;;;;-5.88;96.51;102739.50;5093553;28;20076;-80
2022/12/18 01:07:16;;;;;;;26.48;11.05;;;;;;;-5.91;96.36;102750.25;5092957;28;20103;-80
2022/12/18 01:09:41;;;;;;;25.80;10.38;;;;;;;-5.94;96.33;102751.63;5092502;28;20059;-81
2022/12/18 01:12:07;;;;;;;25.23;9.98;;;;;;;-5.92;96.25;102753.56;5091810;28;20035;-80
2022/12/18 01:14:32;;;;;;;25.38;11.05;;;;;;;-5.98;95.95;102759.75;5073183;28;20031;-80
2022/12/18 01:16:57;;;;;;;26.13;11.15;;;;;;;-6.03;95.93;102751.81;5086280;28;20118;-80
2022/12/18 01:19:23;;;;;;;26.20;10.95;;;;;;;-6.08;95.77;102758.97;5093095;28;20037;-81
2022/12/18 01:21:49;;;;;;;29.35;12.82;;;;;;;-6.07;96.13;102767.47;5093236;28;20028;-81
2022/12/18 01:24:14;;;;;;;28.17;11.88;;;;;;;-6.15;95.53;102765.94;5091965;28;20106;-80
2022/12/18 01:26:39;;;;;;;27.95;11.68;;;;;;;-6.19;95.63;102767.31;5093109;28;20031;-81
2022/12/18 01:29:05;;;;;;;27.08;11.40;;;;;;;-6.19;95.86;102762.25;5092660;28;20119;-80
2022/12/18 01:31:36;;;;;;;24.30;10.40;;;;;;;-6.21;95.80;102758.75;5092531;28;20396;-80
2022/12/18 01:34:02;;;;;;;25.55;11.23;;;;;;;-6.22;95.55;102762.03;5092955;28;20059;-80
2022/12/18 01:36:30;;;;;;;25.70;10.90;;;;;;;-6.26;95.82;102749.88;5093019;28;20028;-80
2022/12/18 01:38:56;;;;;;;24.67;10.35;;;;;;;-6.27;96.00;102759.13;5092218;28;20028;-80
2022/12/18 01:42:01;;;;;;;25.58;11.00;;;;;;;-6.29;96.14;102744.56;5092591;28;20042;-80
2022/12/18 01:44:57;;;;;;;26.83;11.50;;;;;;;-6.32;95.85;102749.38;5091732;28;20077;-80
2022/12/18 01:47:30;;;;;;;26.23;11.27;;;;;;;-6.36;95.78;102748.22;5075780;28;20036;-80
2022/12/18 01:49:57;;;;;;;24.63;9.93;;;;;;;-6.35;95.63;102739.88;5072780;28;20115;-80
2022/12/18 01:52:26;;;;;;;25.52;10.95;;;;;;;-6.36;95.83;102744.06;5084846;28;20032;-80
2022/12/18 01:54:52;;;;;;;24.63;10.45;;;;;;;-6.37;95.93;102759.09;5093045;28;20077;-80
2022/12/18 01:57:17;;;;;;;24.58;10.30;;;;;;;-6.38;95.69;102754.78;5092532;28;20119;-80
2022/12/18 01:59:47;;;;;;;26.15;11.38;;;;;;;-6.40;95.70;102757.16;5092569;28;20097;-80
2022/12/18 02:02:13;;;;;;;26.08;10.95;;;;;;;-6.44;95.88;102749.19;5092550;28;20039;-80
2022/12/18 02:04:41;;;;;;;25.17;10.48;;;;;;;-6.45;95.71;102747.44;5093161;28;20021;-80
2022/12/18 02:07:16;;;;;;;24.58;10.43;;;;;;;-6.46;95.66;102748.19;5092234;28;20028;-80
2022/12/18 02:09:58;;;;;;;22.95;8.82;;;;;;;-6.49;95.68;102736.19;5092681;28;20091;-80
2022/12/18 02:12:29;;;;;;;23.80;9.20;;;;;;;-6.50;95.48;102741.13;5095534;28;20059;-80
2022/12/18 02:15:02;;;;;;;22.65;9.48;;;;;;;-6.53;95.68;102735.03;5098454;28;20059;-81
2022/12/18 02:17:44;;;;;;;22.73;9.50;;;;;;;-6.52;95.82;102728.34;5080055;28;20041;-80
2022/12/18 02:20:22;;;;;;;24.23;9.77;;;;;;;-6.52;95.90;102735.91;5075420;28;20401;-80
2022/12/18 02:23:05;;;;;;;25.48;11.10;;;;;;;-6.53;96.29;102724.94;5076459;28;20035;-81
2022/12/18 02:26:04;;;;;;;24.92;10.80;;;;;;;-6.53;95.67;102727.47;5076287;28;20158;-80
2022/12/18 02:28:34;;;;;;;27.73;11.82;;;;;;;-6.56;95.55;102732.25;5076215;28;20103;-80
2022/12/18 02:31:04;;;;;;;26.00;10.93;;;;;;;-6.58;95.45;102735.41;5076056;28;20020;-80
2022/12/18 02:33:30;;;;;;;26.63;11.10;;;;;;;-6.59;95.73;102736.16;5075188;28;20167;-80
2022/12/18 02:35:58;;;;;;;25.65;10.90;;;;;;;-6.59;95.41;102733.63;5075754;28;20115;-80
2022/12/18 02:38:25;;;;;;;23.77;10.23;;;;;;;-6.58;95.53;102731.22;5075532;28;20027;-80
2022/12/18 02:40:53;;;;;;;23.63;9.90;;;;;;;-6.58;95.66;102735.41;5075150;28;20028;-80
2022/12/18 02:43:19;;;;;;;22.52;9.60;;;;;;;-6.60;95.49;102731.84;5075957;28;20029;-80
2022/12/18 02:45:55;;;;;;;23.90;9.68;;;;;;;-6.62;95.48;102725.78;5079891;28;20027;-80
2022/12/18 02:48:30;;;;;;;23.52;10.15;;;;;;;-6.64;95.77;102717.22;5095001;28;20028;-80
2022/12/18 02:51:17;;;;;;;22.77;9.60;;;;;;;-6.64;95.71;102714.69;5096165;28;20074;-80
2022/12/18 02:53:50;;;;;;;21.35;8.52;;;;;;;-6.67;95.54;102711.16;5095882;28;20460;-80
2022/12/18 02:56:51;;;;;;;22.05;8.93;;;;;;;-6.67;95.46;102713.66;5092977;28;20021;-80
2022/12/18 02:59:28;;;;;;;23.08;9.50;;;;;;;-6.69;95.19;102712.66;5086652;28;20047;-80
2022/12/18 03:02:21;;;;;;;23.40;9.35;;;;;;;-6.72;94.94;102717.44;5075098;28;20024;-80
2022/12/18 03:05:09;;;;;;;22.63;9.32;;;;;;;-6.75;95.08;102714.63;5075626;28;20027;-80
2022/12/18 03:07:52;;;;;;;22.17;8.40;;;;;;;-6.76;95.18;102710.38;5075381;28;20530;-80
2022/12/18 03:10:23;;;;;;;20.70;8.45;;;;;;;-6.71;95.47;102704.06;5074444;28;20025;-80
2022/12/18 03:12:56;;;;;;;22.95;9.18;;;;;;;-6.81;94.68;102701.50;5075310;28;20077;-80
2022/12/18 03:15:47;;;;;;;22.73;9.90;;;;;;;-6.80;95.23;102688.13;5077874;28;20121;-80
2022/12/18 03:18:24;;;;;;;22.27;9.38;;;;;;;-6.83;94.95;102682.81;5085727;28;20044;-80
2022/12/18 03:20:53;;;;;;;24.92;10.05;;;;;;;-6.87;95.08;102685.84;5095565;28;20028;-80
2022/12/18 03:23:25;;;;;;;25.17;10.82;;;;;;;-6.90;94.98;102695.66;5093157;28;20069;-80
2022/12/18 03:25:56;;;;;;;25.38;11.20;;;;;;;-6.89;95.17;102693.25;5095759;28;20412;-80
2022/12/18 03:28:22;;;;;;;22.48;9.48;;;;;;;-6.90;95.38;102698.19;5095540;28;20145;-80
2022/12/18 03:30:56;;;;;;;22.23;9.45;;;;;;;-6.88;95.34;102690.00;5094658;28;20080;-80
2022/12/18 03:33:32;;;;;;;23.20;10.27;;;;;;;-6.87;95.08;102694.28;5094148;28;20123;-80
2022/12/18 03:35:57;;;;;;;21.73;9.02;;;;;;;-6.91;94.82;102696.41;5095086;28;20040;-80
2022/12/18 03:38:23;;;;;;;22.50;9.75;;;;;;;-6.93;94.90;102696.31;5093655;28;20077;-80
2022/12/18 03:40:48;;;;;;;22.90;9.32;;;;;;;-6.95;94.68;102694.38;5095069;28;20024;-80
2022/12/18 03:43:26;;;;;;;21.40;8.80;;;;;;;-6.96;95.08;102692.59;5094024;28;20426;-80
2022/12/18 03:45:59;;;;;;;19.88;8.23;;;;;;;-6.98;95.24;102695.00;5094505;28;20032;-80
2022/12/18 03:48:29;;;;;;;22.63;9.20;;;;;;;-6.98;95.25;102693.34;5094537;28;20034;-80
2022/12/18 03:51:23;;;;;;;22.73;8.85;;;;;;;-6.99;94.85;102680.59;5094721;28;20099;-80
2022/12/18 03:54:02;;;;;;;23.67;9.40;;;;;;;-7.00;94.86;102677.22;5086242;28;20168;-80
2022/12/18 03:56:36;;;;;;;22.05;8.77;;;;;;;-7.05;94.81;102677.56;5094659;28;20099;-80
2022/12/18 03:59:04;;;;;;;22.42;8.65;;;;;;;-7.09;95.02;102667.97;5073604;28;20108;-80
2022/12/18 04:01:37;;;;;;;21.38;8.40;;;;;;;-7.11;94.92;102662.78;5073978;28;20446;-80
2022/12/18 04:04:04;;;;;;;21.00;8.43;;;;;;;-7.10;94.53;102656.09;5074234;28;20031;-80
2022/12/18 04:06:30;;;;;;;20.60;8.27;;;;;;;-7.14;94.79;102653.28;5073389;28;20031;-80
2022/12/18 04:08:57;;;;;;;21.50;8.38;;;;;;;-7.14;94.97;102645.72;5074269;28;20393;-80
2022/12/18 04:11:22;;;;;;;20.02;7.82;;;;;;;-7.14;95.07;102648.25;5072942;28;20028;-80
2022/12/18 04:13:48;;;;;;;25.13;9.52;;;;;;;-7.11;94.69;102645.13;5074263;28;20021;-80
2022/12/18 04:16:13;;;;;;;20.63;8.80;;;;;;;-7.18;94.76;102652.91;5073423;28;20044;-80
2022/12/18 04:18:38;;;;;;;20.17;8.40;;;;;;;-7.22;94.67;102641.66;5073124;28;20169;-80
2022/12/18 04:21:04;;;;;;;20.30;8.25;;;;;;;-7.21;94.92;102633.34;5073545;28;20071;-80
2022/12/18 04:23:29;;;;;;;22.27;9.85;;;;;;;-7.21;94.75;102640.03;5073570;28;20033;-80
2022/12/18 04:25:54;;;;;;;24.45;11.13;;;;;;;-7.16;94.49;102638.78;5072773;28;20477;-80
2022/12/18 04:28:20;;;;;;;22.45;9.77;;;;;;;-7.23;94.34;102633.97;5073578;28;20029;-80
2022/12/18 04:30:48;;;;;;;23.45;10.15;;;;;;;-7.27;94.39;102634.44;5073670;28;20559;-80
2022/12/18 04:33:17;;;;;;;25.45;10.70;;;;;;;-7.30;94.34;102637.59;5072417;28;20029;-80
2022/12/18 04:35:43;;;;;;;22.13;9.32;;;;;;;-7.32;94.83;102642.50;5073463;28;20086;-79
2022/12/18 04:38:09;;;;;;;21.75;9.73;;;;;;;-7.31;94.69;102645.91;5073252;28;20071;-80
2022/12/18 04:40:35;;;;;;;22.33;9.30;;;;;;;-7.33;94.95;102652.47;5072708;28;20024;-80
2022/12/18 04:43:01;;;;;;;21.77;8.75;;;;;;;-7.32;94.81;102655.09;5073530;28;20020;-80
2022/12/18 04:45:26;;;;;;;21.85;8.35;;;;;;;-7.33;94.67;102655.88;5073905;28;20052;-80
2022/12/18 04:47:52;;;;;;;19.83;7.88;;;;;;;-7.33;94.76;102653.38;5092805;28;20426;-80
2022/12/18 04:50:17;;;;;;;19.15;8.35;;;;;;;-7.33;94.59;102655.88;5093123;28;20461;-80
2022/12/18 04:52:44;;;;;;;19.88;7.68;;;;;;;-7.32;94.63;102659.28;5093451;28;20055;-80
2022/12/18 04:55:09;;;;;;;20.17;7.57;;;;;;;-7.31;94.85;102664.44;5092133;28;20036;-80
2022/12/18 04:57:35;;;;;;;20.30;7.78;;;;;;;-7.29;94.49;102670.53;5093702;28;20095;-80
2022/12/18 05:00:00;;;;;;;18.63;7.28;;;;;;;-7.27;94.61;102677.34;5093320;28;20024;-80
2022/12/18 05:02:25;;;;;;;17.73;6.97;;;;;;;-7.26;94.28;102682.50;5092353;28;20107;-80
2022/12/18 05:04:51;;;;;;;18.55;7.10;;;;;;;-7.26;94.46;102679.13;5093306;28;20055;-80
2022/12/18 05:07:16;;;;;;;16.77;6.57;;;;;;;-7.29;94.70;102674.69;5092890;28;20024;-80
2022/12/18 05:09:41;;;;;;;17.92;7.32;;;;;;;-7.29;94.74;102677.22;5092408;28;20031;-80
2022/12/18 05:12:07;;;;;;;18.25;7.28;;;;;;;-7.29;94.46;102679.75;5093068;28;20483;-80
2022/12/18 05:14:32;;;;;;;18.38;7.07;;;;;;;-7.29;94.62;102694.88;5093415;28;20036;-80
2022/12/18 05:16:57;;;;;;;17.38;6.88;;;;;;;-7.32;94.47;102685.38;5078646;28;20045;-80
2022/12/18 05:19:22;;;;;;;17.95;6.80;;;;;;;-7.31;94.62;102683.75;5072630;28;20028;-80
2022/12/18 05:21:48;;;;;;;19.17;7.43;;;;;;;-7.34;94.43;102686.91;5071773;28;20017;-79
2022/12/18 05:24:13;;;;;;;18.10;7.25;;;;;;;-7.35;94.45;102682.63;5072400;28;20028;-80
2022/12/18 05:26:38;;;;;;;19.55;7.35;;;;;;;-7.35;94.64;102674.16;5073010;28;20111;-80
2022/12/18 05:29:04;;;;;;;17.70;6.93;;;;;;;-7.37;94.56;102671.50;5071938;28;20020;-80
2022/12/18 05:31:29;;;;;;;17.98;6.63;;;;;;;-7.37;94.17;102670.59;5072667;28;20112;-80
2022/12/18 05:33:54;;;;;;;18.63;7.07;;;;;;;-7.38;94.60;102668.84;5072301;28;20027;-80
2022/12/18 05:36:20;;;;;;;18.70;7.75;;;;;;;-7.39;94.41;102665.44;5071709;28;20020;-80
2022/12/18 05:38:46;;;;;;;18.77;6.95;;;;;;;-7.38;94.49;102671.38;5072571;28;20017;-80
2022/12/18 05:41:12;;;;;;;20.45;8.00;;;;;;;-7.42;93.88;102672.72;5072247;28;20052;-80
2022/12/18 05:43:38;;;;;;;18.85;7.38;;;;;;;-7.40;94.15;102667.84;5072046;28;20059;-80
2022/12/18 05:46:11;;;;;;;19.80;7.22;;;;;;;-7.39;94.39;102664.56;5074297;28;20024;-80
2022/12/18 05:48:36;;;;;;;17.00;6.63;;;;;;;-7.37;94.19;102660.50;5088223;28;20070;-80
2022/12/18 05:51:10;;;;;;;22.02;8.85;;;;;;;-7.46;93.92;102651.41;5096310;28;20062;-80
2022/12/18 05:53:37;;;;;;;20.27;7.93;;;;;;;-7.43;94.16;102644.84;5096943;28;20016;-80
2022/12/18 05:56:04;;;;;;;20.15;8.27;;;;;;;-7.41;94.32;102653.44;5096537;28;20052;-80
2022/12/18 05:58:31;;;;;;;19.83;7.75;;;;;;;-7.41;94.59;102651.78;5096130;28;20074;-80
2022/12/18 06:00:56;;;;;;;20.50;8.20;;;;;;;-7.40;94.33;102643.47;5096934;28;20031;-80
2022/12/18 06:03:22;;;;;;;20.20;7.63;;;;;;;-7.39;94.50;102641.84;5096461;28;20547;-80
2022/12/18 06:05:47;;;;;;;18.95;7.30;;;;;;;-7.40;94.49;102643.47;5094365;28;20039;-79
2022/12/18 06:08:13;;;;;;;19.45;7.13;;;;;;;-7.38;94.65;102641.09;5076300;28;20414;-80
2022/12/18 06:10:39;;;;;;;16.85;6.32;;;;;;;-7.38;94.59;102641.09;5076341;28;20620;-80
2022/12/18 06:13:05;;;;;;;16.55;6.10;;;;;;;-7.38;94.45;102641.97;5075395;28;20410;-80
2022/12/18 06:15:31;;;;;;;17.48;6.60;;;;;;;-7.36;94.33;102639.56;5076158;28;20044;-80
2022/12/18 06:17:57;;;;;;;18.25;7.22;;;;;;;-7.37;94.71;102643.75;5075427;28;20025;-79
2022/12/18 06:20:32;;;;;;;18.33;7.63;;;;;;;-7.39;94.72;102647.78;5075665;28;20112;-80
2022/12/18 06:22:57;;;;;;;18.92;7.28;;;;;;;-7.39;94.35;102650.28;5076162;28;20024;-80
2022/12/18 06:25:22;;;;;;;16.92;7.03;;;;;;;-7.42;94.33;102650.03;5076963;28;20032;-80
2022/12/18 06:27:48;;;;;;;18.55;7.32;;;;;;;-7.42;94.80;102652.53;5095863;28;20032;-80
2022/12/18 06:30:14;;;;;;;18.13;7.13;;;;;;;-7.41;94.21;102655.97;5095959;28;20020;-79
2022/12/18 06:32:40;;;;;;;16.58;7.05;;;;;;;-7.39;94.66;102651.94;5095464;28;20028;-80
2022/12/18 06:35:06;;;;;;;17.13;6.55;;;;;;;-7.40;94.55;102651.03;5095466;28;20548;-79
2022/12/18 06:37:31;;;;;;;19.95;8.05;;;;;;;-7.35;94.37;102651.44;5095423;28;20384;-80
2022/12/18 06:39:56;;;;;;;20.85;8.50;;;;;;;-7.37;94.79;102651.31;5095374;28;20141;-80
2022/12/18 06:42:23;;;;;;;20.67;9.05;;;;;;;-7.38;94.39;102641.97;5095806;28;20032;-80
2022/12/18 06:44:48;;;;;;;21.80;8.47;;;;;;;-7.39;94.18;102637.69;5095894;28;20051;-80
2022/12/18 06:47:13;;;;;;;24.23;9.20;;;;;;;-7.45;94.27;102632.13;5093072;28;20460;-80
2022/12/18 06:49:38;;;;;;;22.65;9.07;;;;;;;-7.46;94.22;102631.22;5095900;28;20032;-80
2022/12/18 06:52:04;;;;;;;20.30;7.82;;;;;;;-7.45;94.33;102634.63;5095754;28;20384;-80
2022/12/18 06:54:29;;;;;;;20.08;8.10;;;;;;;-7.46;94.32;102631.22;5095043;28;20035;-80
2022/12/18 06:56:57;;;;;;;20.42;8.00;;;;;;;-7.44;94.33;102623.81;5095324;28;20499;-80
2022/12/18 06:59:22;;;;;;;18.95;7.38;;;;;;;-7.46;94.31;102628.69;5095200;28;20507;-80
2022/12/18 07:01:47;;;;;;;20.35;7.70;;;;;;;-7.45;94.33;102625.44;5094900;28;20047;-80
2022/12/18 07:04:13;;;;;;;19.85;8.05;;;;;;;-7.48;94.49;102627.66;5095391;28;20020;-80
2022/12/18 07:06:38;;;;;;;20.25;8.00;;;;;;;-7.45;94.28;102627.94;5095438;28;20020;-80
2022/12/18 07:09:03;;;;;;;20.23;7.95;;;;;;;-7.45;94.29;102627.06;5094659;28;20027;-80
2022/12/18 07:11:29;;;;;;;18.23;7.60;;;;;;;-7.46;94.11;102625.31;5079985;28;20028;-79
2022/12/18 07:13:54;;;;;;;19.20;7.35;;;;;;;-7.48;94.20;102616.72;5074866;28;20036;-80
2022/12/18 07:16:21;;;;;;;19.00;7.78;;;;;;;-7.49;94.51;102609.91;5081016;28;20117;-80
2022/12/18 07:18:46;;;;;;;19.50;7.50;;;;;;;-7.53;94.23;102606.22;5089911;28;20025;-80
2022/12/18 07:21:15;;;;;;;17.58;6.93;;;;;;;-7.51;94.28;102609.78;5074416;28;20021;-80
2022/12/18 07:23:40;;;;;;;20.88;8.27;;;;;;;-7.54;94.07;102601.94;5075023;28;20134;-80
2022/12/18 07:26:12;;;;;;;20.23;8.48;;;;;;;-7.53;94.41;102580.09;5074539;28;20488;-80
2022/12/18 07:28:39;;;;;;;21.92;9.32;;;;;;;-7.54;94.58;102576.72;5074278;28;20107;-79
2022/12/18 07:31:06;;;;;;;22.48;9.57;;;;;;;-7.54;94.55;102571.66;5074498;28;20040;-80
2022/12/18 07:33:33;;;;;;;22.77;10.07;;;;;;;-7.52;94.51;102574.31;5074652;28;20067;-80
2022/12/18 07:36:03;;;;;;;22.65;9.73;;;;;;;-7.53;94.48;102568.41;5074086;28;20028;-80
2022/12/18 07:38:29;;;;;;;21.80;9.43;;;;;;;-7.52;94.32;102579.34;5074836;28;20020;-80
2022/12/18 07:40:59;;;;;;;21.08;9.15;;;;;;;-7.53;94.57;102575.06;5090899;28;20495;-80
2022/12/18 07:43:24;;;;;;;21.08;8.82;;;;;;;-7.56;94.54;102560.56;5093900;28;20103;-80
2022/12/18 07:45:50;;;;;;;22.08;9.57;;;;;;;-7.55;94.66;102559.81;5091121;28;20486;-81
2022/12/18 07:48:15;;;;;;;21.45;9.15;;;;;;;-7.53;95.05;102558.31;5074583;28;20097;-80
2022/12/18 07:50:41;;;;;;;22.50;9.00;;;;;;;-7.52;94.76;102547.47;5073758;28;20025;-80
2022/12/18 07:53:06;;;;;;;20.55;9.32;;;;;;;-7.52;94.79;102542.44;5074260;28;20025;-81
2022/12/18 07:55:32;;;;;;;22.15;10.02;;;;;;;-7.49;94.65;102531.72;5080130;28;20028;-80
2022/12/18 07:58:00;;;;;;;22.02;9.75;;;;;;;-7.48;94.77;102523.38;5084139;28;20181;-80
2022/12/18 08:00:25;;;;;;;23.95;10.95;;;;;;;-7.43;94.93;102527.22;5089337;22;20052;-80
2022/12/18 08:02:51;;;;;;;26.48;12.23;;;;;;;-7.41;94.94;102525.66;5086161;28;20027;-80
2022/12/18 08:05:16;;;;;;;24.55;11.45;;;;;;;-7.39;95.15;102544.34;5093415;28;20115;-81
2022/12/18 08:07:42;;;;;;;23.73;10.60;;;;;;;-7.38;95.30;102540.19;5094387;28;20038;-80
2022/12/18 08:10:07;;;;;;;25.88;12.23;;;;;;;-7.32;95.12;102541.56;5093145;28;20043;-80
2022/12/18 08:12:33;;;;;;;26.48;11.98;;;;;;;-7.31;95.21;102538.31;5093649;28;20069;-80
2022/12/18 08:14:58;;;;;;;23.25;11.05;;;;;;;-7.23;95.22;102540.63;5076908;28;20036;-81
2022/12/18 08:17:23;;;;;;;23.25;10.43;;;;;;;-7.22;95.17;102538.22;5073583;28;20028;-81
2022/12/18 08:19:49;;;;;;;25.10;11.38;;;;;;;-7.19;95.27;102542.63;5073438;28;20024;-80
2022/12/18 08:22:14;;;;;;;23.17;10.93;;;;;;;-7.15;95.49;102547.19;5074024;28;20389;-80
2022/12/18 08:24:39;;;;;;;23.13;10.52;;;;;;;-7.09;95.28;102554.38;5073380;28;20040;-80
2022/12/18 08:27:05;;;;;;;22.55;9.93;;;;;;;-7.07;95.20;102548.69;5073889;28;20029;-80
2022/12/18 08:29:31;;;;;;;26.38;12.45;;;;;;;-7.01;95.41;102548.34;5071559;28;20434;-80
2022/12/18 08:31:57;;;;;;;26.77;12.13;;;;;;;-6.95;95.46;102550.50;5074553;28;20456;-80
2022/12/18 08:34:22;;;;;;;26.80;11.77;;;;;;;-6.90;95.67;102546.72;5071146;28;20116;-80
2022/12/18 08:36:50;;;;;;;24.30;11.48;;;;;;;-6.87;95.17;102545.31;5073460;28;20028;-81
2022/12/18 08:39:18;;;;;;;25.02;11.43;;;;;;;-6.81;95.29;102547.47;5072692;28;20025;-81
2022/12/18 08:44:37;;;;;;;26.42;12.20;;;;;;;-6.72;94.97;102545.72;5073456;28;20434;-81
2022/12/18 08:44:38;;;;;;;25.00;12.48;;;;;;;-6.69;94.82;102532.44;5071202;28;20040;-80
2022/12/18 08:47:03;;;;;;;26.77;12.13;;;;;;;-6.65;95.15;102533.59;5072590;28;20430;-80
2022/12/18 08:49:29;;;;;;;27.48;13.15;;;;;;;-6.63;95.80;102522.84;5073390;28;20017;-81
2022/12/18 08:51:56;;;;;;;26.70;12.30;;;;;;;-6.56;95.55;102524.25;5073148;28;20032;-80
2022/12/18 08:54:22;;;;;;;26.13;11.38;;;;;;;-6.53;95.49;102519.47;5072779;28;20594;-81
2022/12/18 08:56:49;;;;;;;23.10;10.80;;;;;;;-6.45;95.58;102515.91;5073266;28;20054;-81
2022/12/18 08:59:15;;;;;;;24.73;12.02;;;;;;;-6.37;95.52;102521.56;5072746;28;20065;-81
2022/12/18 09:01:40;;;;;;;25.48;12.13;;;;;;;-6.36;95.54;102518.28;5072197;28;20032;-81
2022/12/18 09:04:05;;;;;;;26.77;12.77;;;;;;;-6.29;95.27;102514.59;5072908;28;20054;-81
2022/12/18 09:06:31;;;;;;;23.92;11.18;;;;;;;-6.25;95.71;102509.03;5072577;28;20025;-81
2022/12/18 09:08:57;;;;;;;26.20;12.02;;;;;;;-6.18;95.49;102510.41;5072022;28;20517;-81
2022/12/18 09:11:25;;;;;;;24.15;11.32;;;;;;;-6.12;95.06;102523.53;5072480;28;20395;-81
2022/12/18 09:13:51;;;;;;;23.27;10.00;;;;;;;-6.07;95.21;102533.25;5071269;28;20032;-81
2022/12/18 09:16:17;;;;;;;22.80;10.43;;;;;;;-6.01;95.19;102516.81;5072313;28;20112;-81
2022/12/18 09:18:42;;;;;;;23.77;11.43;;;;;;;-5.94;95.25;102526.59;5072597;28;20021;-81
2022/12/18 09:21:13;;;;;;;22.70;10.52;;;;;;;-5.87;95.08;102531.41;5070967;28;20363;-81
2022/12/18 09:23:39;;;;;;;24.25;11.63;;;;;;;-5.85;95.40;102542.50;5073163;28;20027;-81
2022/12/18 09:26:04;;;;;;;25.77;12.00;;;;;;;-5.77;94.75;102549.06;5071735;28;20029;-80
2022/12/18 09:28:29;;;;;;;24.73;11.68;;;;;;;-5.74;94.79;102549.28;5072200;28;20031;-81
2022/12/18 09:30:55;;;;;;;24.42;11.45;;;;;;;-5.71;95.37;102543.59;5072556;28;20028;-81
2022/12/18 09:33:20;;;;;;;25.38;12.25;;;;;;;-5.66;95.28;102536.38;5072455;28;20476;-81
2022/12/18 09:35:46;;;;;;;23.48;10.90;;;;;;;-5.61;95.47;102535.06;5071734;28;20051;-81
2022/12/18 09:38:14;;;;;;;26.17;13.77;;;;;;;-5.54;94.85;102524.69;5071912;28;20059;-80
2022/12/18 09:40:55;;;;;;;25.83;12.63;;;;;;;-5.51;95.07;102522.38;5073015;28;20024;-81
2022/12/18 09:43:27;;;;;;;26.00;12.63;;;;;;;-5.47;95.29;102509.19;5071317;28;20059;-81
2022/12/18 09:46:04;;;;;;;25.42;13.10;;;;;;;-5.44;94.46;102506.91;5072645;28;20534;-81
2022/12/18 09:48:41;;;;;;;26.98;13.30;;;;;;;-5.37;94.23;102507.38;5072943;28;20115;-81
2022/12/18 09:51:17;;;;;;;28.10;13.98;;;;;;;-5.30;94.15;102502.03;5071390;28;20396;-81
2022/12/18 09:53:50;;;;;;;27.48;13.50;;;;;;;-5.30;94.67;102494.44;5072125;28;20052;-80
2022/12/18 09:56:22;;;;;;;27.85;13.70;;;;;;;-5.25;94.25;102483.00;5071703;28;20034;-81
2022/12/18 09:58:59;;;;;;;30.35;14.77;;;;;;;-5.14;93.92;102479.63;5072131;28;20026;-82
2022/12/18 10:01:26;;;;;;;28.33;14.20;;;;;;;-5.17;94.42;102486.09;5071755;28;20068;-80
2022/12/18 10:03:53;;;;;;;28.73;14.32;;;;;;;-4.90;93.47;102496.56;5071456;28;20053;-80
2022/12/18 10:06:26;;;;;;;28.60;13.70;;;;;;;-4.98;94.47;102498.50;5072370;28;20048;-80
2022/12/18 10:09:15;;;;;;;27.50;13.77;;;;;;;-4.90;93.46;102494.88;5072236;28;20458;-80
2022/12/18 10:11:52;;;;;;;27.75;13.25;;;;;;;-4.84;93.95;102494.47;5071628;28;20060;-80
2022/12/18 10:14:29;;;;;;;25.10;12.90;;;;;;;-4.81;93.96;102498.09;5071545;28;20028;-80
2022/12/18 10:16:57;;;;;;;27.33;13.15;;;;;;;-4.75;93.93;102492.59;5072443;28;20032;-81
2022/12/18 10:19:59;;;;;;;26.48;13.25;;;;;;;-4.67;94.19;102490.66;5071541;28;20389;-81
2022/12/18 10:22:43;;;;;;;25.88;13.18;;;;;;;-4.61;93.76;102501.22;5072179;28;20029;-81
2022/12/18 10:25:35;;;;;;;25.63;12.20;;;;;;;-4.56;93.94;102488.91;5071352;28;20098;-80
2022/12/18 10:28:12;;;;;;;26.75;13.07;;;;;;;-4.53;94.15;102484.94;5072345;28;20024;-81
2022/12/18 10:30:38;;;;;;;23.30;11.98;;;;;;;-4.49;94.19;102486.03;5072538;28;20107;-79
2022/12/18 10:33:04;;;;;;;24.80;12.00;;;;;;;-4.45;93.80;102472.84;5074326;28;20048;-81
2022/12/18 10:35:29;;;;;;;24.23;11.50;;;;;;;-4.36;94.45;102468.41;5075656;28;20082;-83
2022/12/18 10:38:00;;;;;;;23.70;11.48;;;;;;;-4.21;94.56;102467.72;5075885;28;20017;-81
2022/12/18 10:40:26;;;;;;;23.17;10.95;;;;;;;-4.22;94.13;102466.88;5074599;28;20012;-81
2022/12/18 10:43:10;;;;;;;27.05;13.80;;;;;;;-4.17;93.60;102456.19;5075433;28;20082;-81
2022/12/18 10:45:35;;;;;;;26.73;13.77;;;;;;;-4.11;93.12;102442.25;5074922;28;20020;-81
2022/12/18 10:48:01;;;;;;;27.65;13.85;;;;;;;-4.10;93.63;102440.63;5075646;28;20031;-82
2022/12/18 10:50:33;;;;;;;25.60;12.35;;;;;;;-4.05;94.08;102441.81;5075126;28;20020;-82
2022/12/18 10:53:02;;;;;;;26.38;12.88;;;;;;;-4.00;93.54;102437.94;5074417;28;20021;-81
2022/12/18 10:55:33;;;;;;;24.23;11.40;;;;;;;-3.94;93.92;102430.75;5083544;28;20025;-81
2022/12/18 10:58:20;;;;;;;27.33;14.05;;;;;;;-3.88;93.29;102425.22;5075304;28;20531;-82
2022/12/18 11:01:07;;;;;;;26.10;13.20;;;;;;;-3.84;92.65;102414.53;5074060;28;20036;-82
2022/12/18 11:03:35;;;;;;;25.65;13.30;;;;;;;-3.82;92.73;102412.06;5083700;28;20017;-82
2022/12/18 11:06:25;;;;;;;26.20;13.48;;;;;;;-3.74;92.58;102405.91;5076102;28;20031;-82
2022/12/18 11:09:20;;;;;;;26.55;13.75;;;;;;;-3.74;92.81;102411.84;5074201;28;20524;-82
2022/12/18 11:11:54;;;;;;;26.50;12.63;;;;;;;-3.68;92.88;102411.38;5055140;28;20031;-82
2022/12/18 11:14:30;;;;;;;23.60;11.32;;;;;;;-3.65;93.58;102411.59;5054000;28;20029;-83
2022/12/18 11:16:58;;;;;;;24.15;12.35;;;;;;;-3.58;92.69;102417.97;5055369;28;20486;-82
2022/12/18 11:19:36;;;;;;;24.15;12.27;;;;;;;-3.57;92.42;102417.19;5070084;28;20384;-82
2022/12/18 11:22:19;;;;;;;26.05;12.38;;;;;;;-3.53;92.85;102419.16;5072502;28;20488;-82